Time;durP1;ratioP1;P1;durP2;ratioP2;P2;SDS_P1;SDS_P2;PMS_P1;PMS_P2;Temp;Humidity;BMP_temperature;BMP_pressure;BME280_temperature;BME280_humidity;BME280_pressure;Samples;Min_cycle;Max_cycle;Signal;HPM_P1;HPM_P2
2024/01/05 00:02:22;;;;;;;50.05;24.60;;;;;;;;;;5013977;28;20052;-86
2024/01/05 00:04:48;;;;;;;163.23;64.60;;;;;;;;;;5027136;28;20525;-86
2024/01/05 00:07:13;;;;;;;41.05;23.17;;;;;;;;;;5028179;28;20051;-86
2024/01/05 00:09:38;;;;;;;42.78;27.33;;;;;;;;;;5027789;28;20375;-86
2024/01/05 00:12:04;;;;;;;51.70;27.67;;;;;;;;;;5026783;28;20506;-86
2024/01/05 00:14:29;;;;;;;28.55;18.90;;;;;;;;;;5027923;28;20072;-86
2024/01/05 00:16:58;;;;;;;21.52;14.13;;;;;;;;;;5029498;28;20018;-86
2024/01/05 00:19:24;;;;;;;20.42;12.00;;;;;;;;;;5029013;28;20115;-86
2024/01/05 00:21:50;;;;;;;39.83;19.48;;;;;;;;;;5000245;28;20072;-86
2024/01/05 00:24:15;;;;;;;25.65;15.32;;;;;;;;;;5011851;28;20029;-86
2024/01/05 00:26:41;;;;;;;27.20;17.63;;;;;;;;;;5015216;28;20482;-86
2024/01/05 00:29:06;;;;;;;10.93;7.95;;;;;;;;;;5014874;28;20048;-86
2024/01/05 00:31:32;;;;;;;11.77;8.07;;;;;;;;;;5011818;28;20121;-85
2024/01/05 00:33:57;;;;;;;13.77;10.45;;;;;;;;;;5027108;28;20056;-86
2024/01/05 00:36:22;;;;;;;17.15;13.65;;;;;;;;;;5011447;28;20072;-86
2024/01/05 00:38:48;;;;;;;12.90;8.93;;;;;;;;;;5027570;28;20097;-86
2024/01/05 00:41:14;;;;;;;12.63;9.35;;;;;;;;;;5008856;28;20029;-85
2024/01/05 00:43:39;;;;;;;15.18;10.07;;;;;;;;;;5007349;28;20506;-86
2024/01/05 00:46:05;;;;;;;16.55;11.95;;;;;;;;;;5029127;28;20006;-86
2024/01/05 00:48:30;;;;;;;20.20;11.13;;;;;;;;;;5012013;28;20026;-86
2024/01/05 00:50:55;;;;;;;16.42;10.52;;;;;;;;;;5012524;28;20083;-86
2024/01/05 00:53:21;;;;;;;15.48;10.75;;;;;;;;;;5008410;28;20030;-86
2024/01/05 00:55:46;;;;;;;9.23;7.07;;;;;;;;;;5028414;28;20116;-85
2024/01/05 00:58:11;;;;;;;15.57;10.57;;;;;;;;;;5028096;28;20057;-86
2024/01/05 01:00:37;;;;;;;9.80;7.00;;;;;;;;;;5028082;28;20145;-86
2024/01/05 01:03:02;;;;;;;15.55;10.63;;;;;;;;;;5028031;28;20017;-86
2024/01/05 01:05:28;;;;;;;25.63;12.75;;;;;;;;;;5026721;28;20023;-86
2024/01/05 01:07:53;;;;;;;14.25;8.90;;;;;;;;;;5028430;28;20017;-86
2024/01/05 01:10:18;;;;;;;19.08;11.13;;;;;;;;;;5013396;28;20045;-86
2024/01/05 01:12:44;;;;;;;17.67;9.85;;;;;;;;;;5014127;28;20436;-86
2024/01/05 01:15:09;;;;;;;29.48;17.13;;;;;;;;;;4994580;28;20032;-87
2024/01/05 01:17:34;;;;;;;20.20;12.18;;;;;;;;;;5027846;28;20027;-86
2024/01/05 01:20:00;;;;;;;10.90;7.07;;;;;;;;;;5015654;28;20029;-86
2024/01/05 01:22:25;;;;;;;12.40;7.63;;;;;;;;;;5025567;28;20105;-86
2024/01/05 01:24:50;;;;;;;10.20;7.43;;;;;;;;;;5027159;28;20025;-87
2024/01/05 01:27:16;;;;;;;12.07;7.78;;;;;;;;;;5009635;28;20021;-86
2024/01/05 01:29:41;;;;;;;11.88;7.28;;;;;;;;;;5008656;28;20029;-86
2024/01/05 01:32:09;;;;;;;11.50;7.50;;;;;;;;;;5009844;28;20021;-86
2024/01/05 01:34:34;;;;;;;15.60;9.75;;;;;;;;;;5008208;28;20053;-86
2024/01/05 01:36:59;;;;;;;9.23;5.47;;;;;;;;;;5026411;28;20236;-85
2024/01/05 01:39:25;;;;;;;14.30;8.35;;;;;;;;;;5008876;28;20431;-86
2024/01/05 01:41:50;;;;;;;14.73;9.30;;;;;;;;;;5026112;28;20067;-86
2024/01/05 01:44:15;;;;;;;13.05;7.72;;;;;;;;;;5008341;28;20048;-86
2024/01/05 01:46:41;;;;;;;15.18;8.55;;;;;;;;;;5026647;28;20511;-86
2024/01/05 01:49:06;;;;;;;14.23;7.20;;;;;;;;;;5008623;28;20021;-86
2024/01/05 01:51:32;;;;;;;11.48;7.22;;;;;;;;;;5009006;28;20017;-86
2024/01/05 01:53:58;;;;;;;12.05;7.32;;;;;;;;;;5012989;28;20018;-85
2024/01/05 01:56:23;;;;;;;12.43;6.35;;;;;;;;;;5008291;28;20087;-86
2024/01/05 01:58:49;;;;;;;9.57;6.32;;;;;;;;;;5007425;28;20434;-86
2024/01/05 02:01:15;;;;;;;12.02;7.50;;;;;;;;;;5009289;28;20017;-86
2024/01/05 02:03:40;;;;;;;15.77;9.18;;;;;;;;;;5026013;28;20044;-86
2024/01/05 02:06:06;;;;;;;15.10;7.53;;;;;;;;;;5009409;28;20021;-86
2024/01/05 02:08:31;;;;;;;13.10;8.20;;;;;;;;;;5012356;28;20052;-86
2024/01/05 02:10:56;;;;;;;10.70;6.97;;;;;;;;;;5009164;28;20080;-86
2024/01/05 02:13:22;;;;;;;11.23;7.50;;;;;;;;;;5026899;28;20483;-86
2024/01/05 02:15:47;;;;;;;12.25;7.32;;;;;;;;;;5009414;28;20091;-86
2024/01/05 02:18:13;;;;;;;49.47;20.65;;;;;;;;;;5009426;28;20439;-86
2024/01/05 02:20:38;;;;;;;27.38;11.55;;;;;;;;;;5004068;28;20095;-86
2024/01/05 02:23:07;;;;;;;25.00;11.82;;;;;;;;;;5009666;28;20026;-86
2024/01/05 02:25:33;;;;;;;13.35;7.68;;;;;;;;;;5009218;28;20021;-86
2024/01/05 02:27:58;;;;;;;12.43;7.90;;;;;;;;;;5011049;28;20033;-85
2024/01/05 02:30:23;;;;;;;9.63;5.85;;;;;;;;;;5009228;28;20025;-86
2024/01/05 02:32:49;;;;;;;9.02;6.05;;;;;;;;;;5026193;28;20021;-86
2024/01/05 02:35:14;;;;;;;6.15;4.63;;;;;;;;;;5009427;28;20079;-86
2024/01/05 02:37:43;;;;;;;26.83;15.23;;;;;;;;;;5026455;28;20072;-86
2024/01/05 02:40:10;;;;;;;32.88;18.33;;;;;;;;;;5025931;28;20112;-86
2024/01/05 02:42:35;;;;;;;27.17;15.20;;;;;;;;;;5010431;28;20516;-86
2024/01/05 02:45:00;;;;;;;13.30;7.90;;;;;;;;;;5008934;28;20048;-85
2024/01/05 02:47:26;;;;;;;14.60;8.80;;;;;;;;;;5026868;28;20087;-86
2024/01/05 02:49:51;;;;;;;11.23;7.50;;;;;;;;;;5008259;28;20049;-86
2024/01/05 02:52:16;;;;;;;19.63;11.13;;;;;;;;;;5009311;28;20108;-85
2024/01/05 02:54:44;;;;;;;10.38;6.60;;;;;;;;;;5025136;28;20472;-86
2024/01/05 02:57:09;;;;;;;10.48;6.75;;;;;;;;;;5009115;28;20026;-85
2024/01/05 02:59:34;;;;;;;13.57;7.28;;;;;;;;;;5008657;28;20028;-86
2024/01/05 03:02:01;;;;;;;9.00;5.10;;;;;;;;;;5025951;28;20099;-86
2024/01/05 03:04:26;;;;;;;7.28;4.20;;;;;;;;;;5009161;28;20028;-86
2024/01/05 03:06:51;;;;;;;9.15;4.28;;;;;;;;;;5009048;28;20017;-86
2024/01/05 03:09:16;;;;;;;5.13;4.25;;;;;;;;;;5009777;28;20017;-86
2024/01/05 03:11:42;;;;;;;6.38;4.93;;;;;;;;;;5009131;28;20040;-86
2024/01/05 03:14:07;;;;;;;5.57;4.55;;;;;;;;;;5011809;28;20411;-86
2024/01/05 03:16:33;;;;;;;8.82;6.00;;;;;;;;;;5025917;28;20066;-85
2024/01/05 03:18:58;;;;;;;11.82;6.32;;;;;;;;;;5026057;28;20024;-86
2024/01/05 03:21:23;;;;;;;11.15;7.00;;;;;;;;;;5012300;28;20068;-86
2024/01/05 03:23:48;;;;;;;10.85;5.60;;;;;;;;;;5026509;28;20104;-86
2024/01/05 03:26:14;;;;;;;12.98;8.50;;;;;;;;;;5026160;28;20029;-86
2024/01/05 03:28:39;;;;;;;11.70;7.45;;;;;;;;;;5011376;28;20030;-86
2024/01/05 03:31:04;;;;;;;11.35;6.38;;;;;;;;;;5024548;28;20026;-86
2024/01/05 03:33:30;;;;;;;49.25;14.90;;;;;;;;;;5008425;28;20479;-86
2024/01/05 03:35:55;;;;;;;10.80;5.90;;;;;;;;;;5008509;28;20033;-86
2024/01/05 03:38:20;;;;;;;9.68;6.35;;;;;;;;;;5009198;28;20499;-87
2024/01/05 03:40:45;;;;;;;24.25;10.77;;;;;;;;;;5007524;28;20072;-86
2024/01/05 03:43:11;;;;;;;10.45;6.57;;;;;;;;;;5010217;28;20021;-86
2024/01/05 03:45:36;;;;;;;11.98;6.72;;;;;;;;;;5007551;28;20582;-86
2024/01/05 03:48:02;;;;;;;9.27;5.40;;;;;;;;;;5007882;28;20108;-86
2024/01/05 03:50:27;;;;;;;9.50;5.90;;;;;;;;;;5008945;28;20132;-86
2024/01/05 03:52:52;;;;;;;18.08;8.13;;;;;;;;;;5025819;28;20092;-86
2024/01/05 03:55:18;;;;;;;26.15;9.48;;;;;;;;;;5026125;28;20041;-86
2024/01/05 03:57:44;;;;;;;14.40;6.05;;;;;;;;;;5007878;28;20546;-86
2024/01/05 04:00:09;;;;;;;79.10;26.65;;;;;;;;;;5026190;28;20059;-86
2024/01/05 04:02:36;;;;;;;12.43;7.15;;;;;;;;;;5025721;28;20053;-86
2024/01/05 04:05:01;;;;;;;10.30;7.55;;;;;;;;;;5009044;28;20036;-86
2024/01/05 04:07:26;;;;;;;7.25;5.13;;;;;;;;;;5028497;28;20096;-86
2024/01/05 04:09:51;;;;;;;17.67;11.32;;;;;;;;;;5028456;28;20021;-86
2024/01/05 04:12:17;;;;;;;17.67;9.80;;;;;;;;;;5011231;28;20104;-86
2024/01/05 04:14:44;;;;;;;13.25;8.27;;;;;;;;;;5007757;28;20108;-86
2024/01/05 04:17:09;;;;;;;13.45;7.95;;;;;;;;;;5029218;28;20538;-86
2024/01/05 04:19:34;;;;;;;12.52;8.43;;;;;;;;;;5027720;28;20147;-86
2024/01/05 04:22:00;;;;;;;18.00;10.20;;;;;;;;;;5030239;28;20629;-86
2024/01/05 04:24:25;;;;;;;14.48;8.20;;;;;;;;;;5011545;28;20049;-86
2024/01/05 04:26:50;;;;;;;15.45;10.10;;;;;;;;;;5027948;28;20491;-86
2024/01/05 04:29:16;;;;;;;21.88;12.13;;;;;;;;;;5031785;28;20021;-86
2024/01/05 04:31:41;;;;;;;16.13;8.98;;;;;;;;;;5011487;28;20049;-86
2024/01/05 04:34:06;;;;;;;12.82;8.77;;;;;;;;;;5028978;28;20032;-86
2024/01/05 04:36:32;;;;;;;21.23;12.98;;;;;;;;;;5029164;28;20018;-86
2024/01/05 04:38:57;;;;;;;58.25;26.02;;;;;;;;;;5027064;28;20052;-86
2024/01/05 04:41:23;;;;;;;75.25;32.08;;;;;;;;;;5027946;28;20029;-86
2024/01/05 04:43:50;;;;;;;47.38;22.08;;;;;;;;;;5010759;28;20024;-86
2024/01/05 04:46:16;;;;;;;51.63;24.27;;;;;;;;;;5011189;28;20116;-86
2024/01/05 04:48:41;;;;;;;32.03;18.77;;;;;;;;;;5013969;28;20444;-86
2024/01/05 04:51:06;;;;;;;39.20;22.50;;;;;;;;;;5028370;28;20138;-86
2024/01/05 04:53:32;;;;;;;46.60;25.20;;;;;;;;;;5026585;28;20017;-85
2024/01/05 04:55:57;;;;;;;27.55;14.93;;;;;;;;;;5025767;28;20017;-87
2024/01/05 04:58:24;;;;;;;40.17;20.05;;;;;;;;;;5024770;28;20561;-87
2024/01/05 05:00:49;;;;;;;28.52;16.20;;;;;;;;;;5025444;28;20021;-86
2024/01/05 05:03:14;;;;;;;28.33;18.05;;;;;;;;;;5008944;28;20602;-87
2024/01/05 05:05:40;;;;;;;30.38;18.77;;;;;;;;;;5007729;28;20013;-86
2024/01/05 05:08:05;;;;;;;25.15;15.13;;;;;;;;;;5013243;28;20013;-86
2024/01/05 05:10:31;;;;;;;25.55;14.25;;;;;;;;;;5025741;28;20415;-86
2024/01/05 05:12:56;;;;;;;36.78;22.27;;;;;;;;;;5007535;28;20057;-86
2024/01/05 05:15:21;;;;;;;48.60;26.58;;;;;;;;;;5021065;28;20096;-86
2024/01/05 05:17:46;;;;;;;36.70;23.10;;;;;;;;;;5005118;28;20025;-86
2024/01/05 05:20:12;;;;;;;27.95;15.20;;;;;;;;;;5020528;28;20025;-85
2024/01/05 05:22:38;;;;;;;24.70;15.52;;;;;;;;;;5016450;28;20048;-85
2024/01/05 05:25:03;;;;;;;28.95;17.13;;;;;;;;;;5022928;28;20013;-85
2024/01/05 05:27:29;;;;;;;42.80;22.40;;;;;;;;;;5020074;28;20025;-85
2024/01/05 05:29:54;;;;;;;48.53;27.90;;;;;;;;;;5006148;28;20032;-86
2024/01/05 05:32:19;;;;;;;36.00;22.75;;;;;;;;;;5004707;28;20052;-85
2024/01/05 05:34:45;;;;;;;30.60;18.50;;;;;;;;;;5008035;28;20530;-86
2024/01/05 05:37:10;;;;;;;23.88;14.90;;;;;;;;;;5021826;28;20112;-85
2024/01/05 05:39:36;;;;;;;28.95;16.13;;;;;;;;;;5023794;28;20112;-86
2024/01/05 05:42:01;;;;;;;32.85;20.00;;;;;;;;;;5019812;28;20024;-85
2024/01/05 05:44:27;;;;;;;24.83;16.02;;;;;;;;;;5023114;28;20025;-85
2024/01/05 05:46:52;;;;;;;30.40;18.63;;;;;;;;;;5004058;28;20465;-86
2024/01/05 05:49:17;;;;;;;29.63;16.27;;;;;;;;;;5005158;28;20022;-85
2024/01/05 05:51:43;;;;;;;53.45;29.63;;;;;;;;;;5022651;28;20017;-86
2024/01/05 05:54:08;;;;;;;37.70;21.13;;;;;;;;;;5003368;28;20124;-86
2024/01/05 05:56:33;;;;;;;36.90;19.63;;;;;;;;;;5004769;28;20048;-86
2024/01/05 05:58:59;;;;;;;19.55;13.32;;;;;;;;;;5003914;28;20538;-86
2024/01/05 06:01:24;;;;;;;34.70;18.70;;;;;;;;;;5004060;28;20057;-86
2024/01/05 06:03:50;;;;;;;22.25;14.57;;;;;;;;;;5003579;28;20029;-86
2024/01/05 06:06:16;;;;;;;43.88;26.33;;;;;;;;;;5005355;28;20029;-86
2024/01/05 06:08:42;;;;;;;41.00;25.17;;;;;;;;;;5002580;28;20021;-86
2024/01/05 06:11:07;;;;;;;33.05;19.70;;;;;;;;;;5018669;28;20028;-87
2024/01/05 06:13:32;;;;;;;36.08;20.63;;;;;;;;;;5017912;28;20664;-86
2024/01/05 06:15:58;;;;;;;21.17;11.75;;;;;;;;;;5020801;28;20746;-86
2024/01/05 06:18:23;;;;;;;33.90;20.30;;;;;;;;;;5022496;28;20037;-85
2024/01/05 06:20:48;;;;;;;27.60;13.75;;;;;;;;;;5002483;28;20171;-85
2024/01/05 06:23:14;;;;;;;24.27;11.98;;;;;;;;;;5023004;28;20017;-86
2024/01/05 06:25:39;;;;;;;26.33;14.77;;;;;;;;;;5003533;28;20021;-85
2024/01/05 06:28:04;;;;;;;20.63;12.27;;;;;;;;;;5004594;28;20025;-86
2024/01/05 06:30:30;;;;;;;20.30;11.80;;;;;;;;;;5003589;28;20025;-86
2024/01/05 06:32:55;;;;;;;34.28;21.55;;;;;;;;;;5021892;28;20104;-86
2024/01/05 06:35:20;;;;;;;22.73;13.50;;;;;;;;;;5021103;28;20025;-86
2024/01/05 06:37:46;;;;;;;22.98;14.07;;;;;;;;;;5005070;28;20049;-86
2024/01/05 06:40:11;;;;;;;26.00;16.52;;;;;;;;;;5020660;28;20506;-86
2024/01/05 06:42:37;;;;;;;22.40;14.85;;;;;;;;;;5002660;28;20087;-86
2024/01/05 06:45:02;;;;;;;18.92;13.60;;;;;;;;;;5009299;28;20024;-86
2024/01/05 06:47:27;;;;;;;23.67;13.75;;;;;;;;;;5020142;28;20029;-86
2024/01/05 06:49:53;;;;;;;263.85;127.78;;;;;;;;;;4988794;28;20025;-86
2024/01/05 06:52:18;;;;;;;205.50;126.78;;;;;;;;;;5002720;28;20036;-86
2024/01/05 06:54:44;;;;;;;27.02;20.20;;;;;;;;;;5024543;28;20040;-86
2024/01/05 06:57:09;;;;;;;48.55;30.88;;;;;;;;;;5025913;28;20025;-87
2024/01/05 06:59:37;;;;;;;69.10;32.00;;;;;;;;;;5008178;28;20025;-87
2024/01/05 07:02:03;;;;;;;313.25;104.65;;;;;;;;;;5008858;28;20014;-86
2024/01/05 07:04:30;;;;;;;33.85;21.33;;;;;;;;;;5008933;28;20425;-87
2024/01/05 07:06:55;;;;;;;24.42;15.25;;;;;;;;;;5025888;28;20017;-86
2024/01/05 07:09:21;;;;;;;32.67;20.00;;;;;;;;;;5008289;28;20029;-86
2024/01/05 07:11:47;;;;;;;39.15;22.50;;;;;;;;;;5010646;28;20294;-86
2024/01/05 07:14:12;;;;;;;35.05;21.23;;;;;;;;;;5008016;28;20028;-86
2024/01/05 07:16:37;;;;;;;58.63;26.75;;;;;;;;;;5024049;28;20029;-86
2024/01/05 07:19:03;;;;;;;41.45;28.20;;;;;;;;;;5007878;28;20531;-86
2024/01/05 07:21:28;;;;;;;28.42;18.08;;;;;;;;;;5021432;28;20036;-85
2024/01/05 07:23:54;;;;;;;47.92;25.48;;;;;;;;;;5008490;28;20045;-87
2024/01/05 07:26:23;;;;;;;74.32;32.63;;;;;;;;;;4992125;28;20022;-87
2024/01/05 07:28:48;;;;;;;;;;;;;;;;;;5025649;28;20473;-87
2024/01/05 07:31:13;;;;;;;252.40;119.97;;;;;;;;;;5024168;28;19913;-86
2024/01/05 07:33:39;;;;;;;92.07;46.33;;;;;;;;;;5024979;28;20491;-87
2024/01/05 07:36:04;;;;;;;47.42;25.98;;;;;;;;;;5007318;28;20056;-86
2024/01/05 07:38:31;;;;;;;51.78;24.25;;;;;;;;;;5004989;28;20045;-87
2024/01/05 07:40:57;;;;;;;205.73;111.88;;;;;;;;;;5008774;28;20021;-87
2024/01/05 07:43:25;;;;;;;83.53;50.20;;;;;;;;;;5018171;28;20374;-86
2024/01/05 07:45:50;;;;;;;127.68;83.20;;;;;;;;;;5013981;28;20030;-87
2024/01/05 07:48:16;;;;;;;54.78;30.75;;;;;;;;;;5029964;28;20032;-87
2024/01/05 07:50:41;;;;;;;83.35;50.13;;;;;;;;;;5015470;28;20499;-89
2024/01/05 07:53:06;;;;;;;90.47;50.88;;;;;;;;;;5031544;28;20039;-89
2024/01/05 07:55:32;;;;;;;57.00;33.95;;;;;;;;;;5028205;28;20095;-89
2024/01/05 07:57:57;;;;;;;54.90;31.77;;;;;;;;;;5030428;28;20233;-88
2024/01/05 08:00:23;;;;;;;36.08;22.75;;;;;;;;;;5017665;28;20335;-89
2024/01/05 08:02:49;;;;;;;29.90;21.35;;;;;;;;;;5014525;28;20034;-89
2024/01/05 08:05:15;;;;;;;52.58;33.53;;;;;;;;;;5016404;28;20031;-89
2024/01/05 08:07:43;;;;;;;45.55;27.27;;;;;;;;;;5027426;28;20021;-89
2024/01/05 08:10:09;;;;;;;52.78;36.97;;;;;;;;;;5009134;28;20083;-89
2024/01/05 08:12:35;;;;;;;63.13;41.95;;;;;;;;;;5026731;28;20033;-89
2024/01/05 08:15:00;;;;;;;77.43;49.45;;;;;;;;;;5026990;28;20502;-90
2024/01/05 08:17:25;;;;;;;90.85;58.30;;;;;;;;;;5008525;28;20454;-87
2024/01/05 08:19:51;;;;;;;32.88;27.00;;;;;;;;;;5008184;28;20029;-89
2024/01/05 08:22:16;;;;;;;44.88;30.45;;;;;;;;;;5026386;28;20108;-88
2024/01/05 08:24:41;;;;;;;15.57;8.45;;;;;;;;;;5010683;28;20403;-90
2024/01/05 08:27:06;;;;;;;9.07;5.00;;;;;;;;;;5013199;28;20018;-88
2024/01/05 08:29:34;;;;;;;8.43;5.18;;;;;;;;;;5009072;28;20022;-88
2024/01/05 08:32:02;;;;;;;11.38;6.63;;;;;;;;;;5012922;28;20048;-87
2024/01/05 08:34:28;;;;;;;14.60;8.63;;;;;;;;;;5009203;28;20017;-88
2024/01/05 08:36:53;;;;;;;12.55;7.75;;;;;;;;;;5009155;28;20083;-87
2024/01/05 08:39:18;;;;;;;26.63;17.27;;;;;;;;;;5008291;28;20096;-87
2024/01/05 08:41:44;;;;;;;15.40;11.38;;;;;;;;;;4993680;28;20376;-88
2024/01/05 08:44:09;;;;;;;59.33;41.50;;;;;;;;;;5027166;28;20544;-89
2024/01/05 08:46:35;;;;;;;110.78;81.60;;;;;;;;;;5015524;28;20493;-88
2024/01/05 08:49:00;;;;;;;438.52;321.60;;;;;;;;;;5008147;28;20026;-88
2024/01/05 08:51:26;;;;;;;33.65;25.75;;;;;;;;;;5009092;28;20079;-88
2024/01/05 08:53:52;;;;;;;103.82;79.18;;;;;;;;;;5026691;28;20033;-89
2024/01/05 08:56:18;;;;;;;64.22;48.55;;;;;;;;;;5008792;28;20569;-89
2024/01/05 08:58:43;;;;;;;14.30;9.48;;;;;;;;;;5011406;28;20034;-88
2024/01/05 09:01:08;;;;;;;51.72;40.83;;;;;;;;;;5008506;28;20047;-90
2024/01/05 09:03:34;;;;;;;23.98;17.65;;;;;;;;;;5026180;28;20021;-89
2024/01/05 09:05:59;;;;;;;22.25;14.20;;;;;;;;;;5025945;28;20383;-90
2024/01/05 09:08:25;;;;;;;11.35;6.03;;;;;;;;;;5011935;28;20067;-89
2024/01/05 09:10:50;;;;;;;9.57;4.68;;;;;;;;;;5026014;28;20029;-89
2024/01/05 09:13:16;;;;;;;7.30;3.72;;;;;;;;;;5016258;28;20399;-89
2024/01/05 09:15:41;;;;;;;9.60;4.90;;;;;;;;;;5008193;28;20042;-89
2024/01/05 09:18:07;;;;;;;8.43;4.90;;;;;;;;;;5008122;28;20626;-89
2024/01/05 09:20:32;;;;;;;9.60;6.10;;;;;;;;;;5022937;28;20395;-89
2024/01/05 09:22:57;;;;;;;11.18;6.80;;;;;;;;;;5028681;28;20025;-90
2024/01/05 09:25:23;;;;;;;14.07;7.90;;;;;;;;;;5018054;28;20020;-89
2024/01/05 09:27:48;;;;;;;12.50;7.07;;;;;;;;;;5009417;28;20103;-85
2024/01/05 09:30:15;;;;;;;9.43;5.90;;;;;;;;;;5024872;28;20018;-88
2024/01/05 09:32:40;;;;;;;11.38;6.53;;;;;;;;;;5008194;28;20021;-87
2024/01/05 09:35:08;;;;;;;11.80;7.03;;;;;;;;;;5025774;28;20036;-87
2024/01/05 09:37:34;;;;;;;10.40;4.85;;;;;;;;;;5014586;28;20053;-89
2024/01/05 09:39:59;;;;;;;13.63;6.43;;;;;;;;;;5012622;28;20031;-88
2024/01/05 09:42:26;;;;;;;11.45;6.20;;;;;;;;;;5026209;28;20048;-89
2024/01/05 09:44:53;;;;;;;11.25;6.43;;;;;;;;;;5022592;28;20731;-89
2024/01/05 09:47:19;;;;;;;8.77;5.78;;;;;;;;;;5028966;28;20030;-89
2024/01/05 09:49:48;;;;;;;9.32;4.63;;;;;;;;;;4993581;28;20061;-89
2024/01/05 09:52:14;;;;;;;;;;;;;;;;;;5009127;28;20108;-89
2024/01/05 09:54:39;;;;;;;13.15;7.75;;;;;;;;;;5026043;28;20516;-89
2024/01/05 09:57:05;;;;;;;13.48;7.38;;;;;;;;;;5027256;28;20722;-88
2024/01/05 09:59:31;;;;;;;14.10;7.85;;;;;;;;;;5022007;28;20109;-90
2024/01/05 10:02:04;;;;;;;16.33;10.40;;;;;;;;;;5027754;28;20022;-91
2024/01/05 10:04:31;;;;;;;16.52;9.90;;;;;;;;;;5014050;28;20503;-91
2024/01/05 10:07:00;;;;;;;19.67;10.50;;;;;;;;;;5015833;28;20017;-91
2024/01/05 10:09:27;;;;;;;12.23;8.15;;;;;;;;;;5024686;28;20022;-90
2024/01/05 10:11:52;;;;;;;33.50;16.92;;;;;;;;;;5019093;28;20129;-90
2024/01/05 10:14:23;;;;;;;110.18;34.42;;;;;;;;;;5002750;28;20108;-91
2024/01/05 10:16:49;;;;;;;235.27;69.95;;;;;;;;;;5027674;28;20022;-89
2024/01/05 10:19:18;;;;;;;291.95;82.22;;;;;;;;;;5010386;28;20126;-91
2024/01/05 10:21:45;;;;;;;197.77;63.15;;;;;;;;;;4995282;28;20034;-91
2024/01/05 10:24:27;;;;;;;220.70;88.43;;;;;;;;;;4999136;28;20029;-89
2024/01/05 10:27:04;;;;;;;39.95;17.95;;;;;;;;;;5010628;28;20017;-90
2024/01/05 10:29:30;;;;;;;55.00;27.52;;;;;;;;;;5022446;28;20024;-89
2024/01/05 10:32:25;;;;;;;85.35;46.25;;;;;;;;;;5005054;28;20021;-90
2024/01/05 10:34:51;;;;;;;42.92;23.35;;;;;;;;;;4964172;28;20035;-93
2024/01/05 10:37:17;;;;;;;76.85;31.90;;;;;;;;;;4963080;28;20057;-89
2024/01/05 10:39:46;;;;;;;73.53;38.60;;;;;;;;;;4962542;28;20226;-89
2024/01/05 10:42:21;;;;;;;54.30;27.70;;;;;;;;;;4964112;28;20015;-89
2024/01/05 10:44:51;;;;;;;52.97;26.30;;;;;;;;;;4962821;28;20042;-90
2024/01/05 10:47:20;;;;;;;33.22;17.23;;;;;;;;;;4962533;28;20015;-90
2024/01/05 10:49:49;;;;;;;;;;;;;;;;;;4964682;28;20114;-89
2024/01/05 10:52:22;;;;;;;26.10;13.65;;;;;;;;;;4946669;28;19902;-90
2024/01/05 10:54:48;;;;;;;13.73;8.80;;;;;;;;;;4964534;28;20038;-88
2024/01/05 10:57:14;;;;;;;152.88;69.22;;;;;;;;;;4963022;28;20023;-88
2024/01/05 10:59:42;;;;;;;39.80;20.02;;;;;;;;;;4945537;29;20622;-89
2024/01/05 11:02:12;;;;;;;75.35;42.55;;;;;;;;;;4943230;29;20035;-88
2024/01/05 11:04:39;;;;;;;35.58;20.05;;;;;;;;;;4941048;29;20465;-89
2024/01/05 11:07:05;;;;;;;19.60;12.23;;;;;;;;;;4946523;29;20031;-88
2024/01/05 11:09:38;;;;;;;14.20;8.50;;;;;;;;;;4947012;29;20077;-88
2024/01/05 11:12:11;;;;;;;54.58;31.33;;;;;;;;;;4945852;28;20039;-88
2024/01/05 11:14:55;;;;;;;78.55;44.20;;;;;;;;;;4980064;28;20516;-90
2024/01/05 11:17:27;;;;;;;32.05;20.02;;;;;;;;;;4987325;28;20035;-89
2024/01/05 11:20:15;;;;;;;17.90;11.75;;;;;;;;;;4986971;28;20023;-88
2024/01/05 11:22:45;;;;;;;27.48;17.08;;;;;;;;;;4971442;28;20033;-86
2024/01/05 11:25:10;;;;;;;56.17;41.35;;;;;;;;;;4987254;28;20110;-90
2024/01/05 11:27:38;;;;;;;63.90;46.60;;;;;;;;;;4968030;28;20114;-89
2024/01/05 11:30:04;;;;;;;35.20;26.13;;;;;;;;;;4958600;28;20319;-89
2024/01/05 11:32:35;;;;;;;41.63;25.17;;;;;;;;;;4971083;28;20082;-88
2024/01/05 11:35:20;;;;;;;49.05;34.50;;;;;;;;;;4968874;28;20544;-87
2024/01/05 11:37:46;;;;;;;23.20;17.00;;;;;;;;;;4998200;28;20045;-88
2024/01/05 11:40:34;;;;;;;6.63;4.50;;;;;;;;;;5005409;28;20013;-87
2024/01/05 11:43:19;;;;;;;15.10;8.88;;;;;;;;;;5014152;28;20021;-88
2024/01/05 11:45:44;;;;;;;6.35;4.43;;;;;;;;;;5004935;28;20041;-87
2024/01/05 11:48:10;;;;;;;12.13;6.50;;;;;;;;;;5007997;28;20064;-87
2024/01/05 11:50:36;;;;;;;15.05;7.90;;;;;;;;;;5004952;28;20025;-87
2024/01/05 11:53:12;;;;;;;15.20;10.25;;;;;;;;;;5016755;28;20033;-88
2024/01/05 11:55:45;;;;;;;14.38;9.05;;;;;;;;;;5004868;28;20021;-87
2024/01/05 11:58:14;;;;;;;16.35;10.32;;;;;;;;;;5003506;28;20032;-90
2024/01/05 12:00:42;;;;;;;14.32;8.60;;;;;;;;;;5003148;28;20093;-86
2024/01/05 12:03:08;;;;;;;14.65;7.18;;;;;;;;;;5006393;28;20022;-87
2024/01/05 12:05:33;;;;;;;13.40;8.55;;;;;;;;;;5003335;28;20028;-89
2024/01/05 12:08:00;;;;;;;37.33;28.10;;;;;;;;;;5003458;28;20668;-89
2024/01/05 12:10:27;;;;;;;37.20;26.58;;;;;;;;;;5023183;28;20350;-89
2024/01/05 12:12:52;;;;;;;38.03;26.13;;;;;;;;;;5006532;28;20026;-89
2024/01/05 12:15:18;;;;;;;14.32;7.90;;;;;;;;;;4999775;28;20127;-89
2024/01/05 12:17:43;;;;;;;40.38;26.00;;;;;;;;;;5004925;28;20017;-88
2024/01/05 12:20:11;;;;;;;83.32;55.55;;;;;;;;;;5004960;28;20124;-89
2024/01/05 12:22:36;;;;;;;69.20;44.05;;;;;;;;;;5004990;28;20022;-89
2024/01/05 12:25:03;;;;;;;145.55;83.32;;;;;;;;;;5005185;28;20038;-90
2024/01/05 12:27:47;;;;;;;31.40;17.67;;;;;;;;;;5002539;28;20105;-90
2024/01/05 12:30:13;;;;;;;48.70;34.92;;;;;;;;;;5014084;28;20030;-89
2024/01/05 12:32:38;;;;;;;49.03;33.25;;;;;;;;;;5003465;28;20025;-90
2024/01/05 12:35:04;;;;;;;80.97;41.63;;;;;;;;;;5006462;28;20032;-90
2024/01/05 12:37:30;;;;;;;51.75;22.73;;;;;;;;;;5016623;28;20041;-90
2024/01/05 12:40:08;;;;;;;273.77;99.53;;;;;;;;;;5019315;28;20028;-91
2024/01/05 12:42:34;;;;;;;;;;;;;;;;;;5005776;28;20079;-91
2024/01/05 12:45:03;;;;;;;93.03;43.38;;;;;;;;;;5002970;28;19913;-91
2024/01/05 12:47:29;;;;;;;146.02;57.17;;;;;;;;;;5004105;28;20259;-90
2024/01/05 12:49:54;;;;;;;305.55;113.07;;;;;;;;;;5004599;28;20084;-92
2024/01/05 12:52:31;;;;;;;175.93;64.45;;;;;;;;;;5003828;28;20106;-90
2024/01/05 12:54:56;;;;;;;371.77;133.15;;;;;;;;;;5012691;28;20044;-91
2024/01/05 12:57:21;;;;;;;98.10;34.95;;;;;;;;;;5008147;28;20681;-91
2024/01/05 12:59:47;;;;;;;213.48;79.28;;;;;;;;;;5009296;28;20030;-91
2024/01/05 13:02:12;;;;;;;92.00;35.10;;;;;;;;;;5018819;28;20026;-89
2024/01/05 13:04:39;;;;;;;58.33;25.05;;;;;;;;;;5017944;28;20638;-89
2024/01/05 13:07:04;;;;;;;232.27;99.07;;;;;;;;;;5006743;28;20029;-90
2024/01/05 13:09:32;;;;;;;114.50;47.50;;;;;;;;;;5018595;28;20030;-89
2024/01/05 13:11:58;;;;;;;187.38;79.32;;;;;;;;;;5001961;28;20018;-89
2024/01/05 13:14:23;;;;;;;97.53;53.83;;;;;;;;;;5005512;28;20032;-89
2024/01/05 13:16:48;;;;;;;134.70;67.70;;;;;;;;;;5017565;28;20014;-89
2024/01/05 13:19:17;;;;;;;167.45;88.40;;;;;;;;;;5024482;28;20033;-89
2024/01/05 13:21:42;;;;;;;68.82;40.85;;;;;;;;;;5007927;28;20446;-90
2024/01/05 13:24:07;;;;;;;64.20;40.25;;;;;;;;;;4993146;28;20025;-89
2024/01/05 13:26:33;;;;;;;30.45;19.92;;;;;;;;;;5007090;28;20492;-89
2024/01/05 13:29:00;;;;;;;28.38;19.00;;;;;;;;;;5011151;28;20029;-89
2024/01/05 13:31:25;;;;;;;20.23;13.88;;;;;;;;;;5007159;28;20026;-89
2024/01/05 13:33:50;;;;;;;27.63;16.63;;;;;;;;;;5004444;28;20029;-89
2024/01/05 13:36:16;;;;;;;118.82;66.45;;;;;;;;;;5012037;28;20095;-89
2024/01/05 13:38:42;;;;;;;67.47;30.08;;;;;;;;;;5005377;28;20448;-90
2024/01/05 13:41:08;;;;;;;89.63;43.78;;;;;;;;;;5006254;28;20121;-89
2024/01/05 13:43:34;;;;;;;85.32;44.42;;;;;;;;;;5006785;28;20141;-87
2024/01/05 13:46:00;;;;;;;58.60;34.53;;;;;;;;;;5005959;28;20025;-91
2024/01/05 13:48:25;;;;;;;54.78;33.47;;;;;;;;;;5005990;28;20018;-90
2024/01/05 13:50:51;;;;;;;41.45;26.85;;;;;;;;;;4992399;28;20025;-91
2024/01/05 13:53:16;;;;;;;28.13;19.67;;;;;;;;;;5007210;28;20022;-90
2024/01/05 13:55:42;;;;;;;29.70;20.08;;;;;;;;;;5007959;28;20028;-91
2024/01/05 13:58:08;;;;;;;29.63;22.00;;;;;;;;;;5007525;28;20022;-90
2024/01/05 14:00:33;;;;;;;29.23;17.77;;;;;;;;;;5008891;28;20073;-91
2024/01/05 14:03:00;;;;;;;38.95;24.58;;;;;;;;;;5007006;28;20040;-91
2024/01/05 14:05:25;;;;;;;23.70;16.65;;;;;;;;;;5007247;28;20092;-90
2024/01/05 14:07:50;;;;;;;39.55;24.67;;;;;;;;;;5008116;28;20431;-90
2024/01/05 14:10:16;;;;;;;45.80;30.23;;;;;;;;;;5006196;28;20029;-89
2024/01/05 14:12:42;;;;;;;55.03;35.80;;;;;;;;;;5005721;28;20026;-90
2024/01/05 14:15:09;;;;;;;43.97;29.08;;;;;;;;;;5006105;28;20373;-88
2024/01/05 14:17:35;;;;;;;37.20;24.10;;;;;;;;;;5005581;28;20678;-90
2024/01/05 14:20:00;;;;;;;31.52;21.17;;;;;;;;;;5001173;28;20030;-89